TTQ weather

Aerotortuguero Airport
Roxana, Limon, Costa Rica

Public forecast

Using degrees Celsius for public forecast. Weather courtesy of forecast.io.

Closest aviation weather report (METAR) to Aerotortuguero Airport

Closest report is Tobias Bolanos International Airport, 41.9 nm (77.6 km) SW. Retrieved 2019/12/14 20:00 UTC (53 minutes ago):

MRPV 142000Z 28009KT 9999 SCT040 26/18 A2997 NOSIG

Closest aviation forecast (TAF) to Aerotortuguero Airport

Closest forecast is Tobias Bolanos International Airport, 41.9 nm (77.6 km) SW. Retrieved 2019/12/14 18:12 UTC (3 hours ago):

TAF TAF MRPV 141700Z 1418/1518 08010KT 9999 FEW045 SCT200 TX27/1419Z TN18/1509Z TEMPO 1421/1501 VRB02KT